sensor_id;sensor_type;location;lat;lon;timestamp;P1;durP1;ratioP1;P2;durP2;ratioP2
19575;SDS011;41589;51.196;7.074;2023-11-22T00:00:10;1.30;;;1.30;;
19575;SDS011;41589;51.196;7.074;2023-11-22T00:05:12;1.03;;;1.03;;
19575;SDS011;41589;51.196;7.074;2023-11-22T00:16:34;1.13;;;1.13;;
19575;SDS011;41589;51.196;7.074;2023-11-22T00:21:37;0.97;;;0.97;;
19575;SDS011;41589;51.196;7.074;2023-11-22T00:26:37;0.93;;;0.93;;
19575;SDS011;41589;51.196;7.074;2023-11-22T00:31:37;0.90;;;0.90;;
19575;SDS011;41589;51.196;7.074;2023-11-22T00:36:38;0.90;;;0.90;;
19575;SDS011;41589;51.196;7.074;2023-11-22T00:41:38;1.10;;;1.10;;
19575;SDS011;41589;51.196;7.074;2023-11-22T00:46:39;0.83;;;0.83;;
19575;SDS011;41589;51.196;7.074;2023-11-22T00:51:40;1.00;;;1.00;;
19575;SDS011;41589;51.196;7.074;2023-11-22T00:56:42;1.10;;;1.10;;
19575;SDS011;41589;51.196;7.074;2023-11-22T01:01:42;1.10;;;1.10;;
19575;SDS011;41589;51.196;7.074;2023-11-22T01:06:42;0.90;;;0.90;;
19575;SDS011;41589;51.196;7.074;2023-11-22T01:11:43;0.90;;;0.90;;
19575;SDS011;41589;51.196;7.074;2023-11-22T01:16:44;1.00;;;1.00;;
19575;SDS011;41589;51.196;7.074;2023-11-22T01:21:44;1.00;;;1.00;;
19575;SDS011;41589;51.196;7.074;2023-11-22T01:26:45;1.00;;;1.00;;
19575;SDS011;41589;51.196;7.074;2023-11-22T01:31:45;0.80;;;0.80;;
19575;SDS011;41589;51.196;7.074;2023-11-22T01:36:45;0.90;;;0.90;;
19575;SDS011;41589;51.196;7.074;2023-11-22T01:41:46;0.80;;;0.80;;
19575;SDS011;41589;51.196;7.074;2023-11-22T01:46:49;1.07;;;1.07;;
19575;SDS011;41589;51.196;7.074;2023-11-22T01:51:50;1.03;;;1.03;;
19575;SDS011;41589;51.196;7.074;2023-11-22T01:56:50;1.30;;;1.30;;
19575;SDS011;41589;51.196;7.074;2023-11-22T02:01:51;0.90;;;0.90;;
19575;SDS011;41589;51.196;7.074;2023-11-22T02:06:53;0.97;;;0.97;;
19575;SDS011;41589;51.196;7.074;2023-11-22T02:11:53;1.03;;;1.03;;
19575;SDS011;41589;51.196;7.074;2023-11-22T02:16:54;0.90;;;0.90;;
19575;SDS011;41589;51.196;7.074;2023-11-22T02:21:54;0.80;;;0.80;;
19575;SDS011;41589;51.196;7.074;2023-11-22T02:26:54;1.87;;;1.77;;
19575;SDS011;41589;51.196;7.074;2023-11-22T02:31:55;1.00;;;1.00;;
19575;SDS011;41589;51.196;7.074;2023-11-22T02:36:56;1.03;;;1.03;;
19575;SDS011;41589;51.196;7.074;2023-11-22T02:41:56;0.93;;;0.93;;
19575;SDS011;41589;51.196;7.074;2023-11-22T02:46:58;1.10;;;1.10;;
19575;SDS011;41589;51.196;7.074;2023-11-22T02:51:59;0.90;;;0.90;;
19575;SDS011;41589;51.196;7.074;2023-11-22T02:57:01;0.97;;;0.97;;
19575;SDS011;41589;51.196;7.074;2023-11-22T03:02:01;0.73;;;0.73;;
19575;SDS011;41589;51.196;7.074;2023-11-22T03:07:01;0.93;;;0.93;;
19575;SDS011;41589;51.196;7.074;2023-11-22T03:12:02;1.00;;;1.00;;
19575;SDS011;41589;51.196;7.074;2023-11-22T03:17:03;1.03;;;1.03;;
19575;SDS011;41589;51.196;7.074;2023-11-22T03:22:03;0.93;;;0.93;;
19575;SDS011;41589;51.196;7.074;2023-11-22T03:27:04;1.00;;;1.00;;
19575;SDS011;41589;51.196;7.074;2023-11-22T03:32:06;1.17;;;1.17;;
19575;SDS011;41589;51.196;7.074;2023-11-22T03:37:06;1.07;;;1.07;;
19575;SDS011;41589;51.196;7.074;2023-11-22T03:42:07;1.00;;;1.00;;
19575;SDS011;41589;51.196;7.074;2023-11-22T03:47:07;0.93;;;0.93;;
19575;SDS011;41589;51.196;7.074;2023-11-22T03:52:11;1.00;;;1.00;;
19575;SDS011;41589;51.196;7.074;2023-11-22T03:57:12;1.10;;;1.10;;
19575;SDS011;41589;51.196;7.074;2023-11-22T04:02:12;0.80;;;0.80;;
19575;SDS011;41589;51.196;7.074;2023-11-22T04:07:12;1.17;;;1.17;;
19575;SDS011;41589;51.196;7.074;2023-11-22T04:12:13;0.87;;;0.87;;
19575;SDS011;41589;51.196;7.074;2023-11-22T04:17:13;1.10;;;1.10;;
19575;SDS011;41589;51.196;7.074;2023-11-22T04:22:13;0.90;;;0.90;;
19575;SDS011;41589;51.196;7.074;2023-11-22T04:27:14;0.80;;;0.80;;
19575;SDS011;41589;51.196;7.074;2023-11-22T04:32:15;0.80;;;0.80;;
19575;SDS011;41589;51.196;7.074;2023-11-22T04:37:15;0.90;;;0.90;;
19575;SDS011;41589;51.196;7.074;2023-11-22T04:42:15;1.00;;;1.00;;
19575;SDS011;41589;51.196;7.074;2023-11-22T04:47:16;0.70;;;0.70;;
19575;SDS011;41589;51.196;7.074;2023-11-22T04:52:16;0.80;;;0.80;;
19575;SDS011;41589;51.196;7.074;2023-11-22T04:57:16;0.70;;;0.70;;
19575;SDS011;41589;51.196;7.074;2023-11-22T05:02:17;0.90;;;0.90;;
19575;SDS011;41589;51.196;7.074;2023-11-22T05:07:18;0.70;;;0.70;;
19575;SDS011;41589;51.196;7.074;2023-11-22T05:12:21;0.80;;;0.80;;
19575;SDS011;41589;51.196;7.074;2023-11-22T05:17:21;0.90;;;0.90;;
19575;SDS011;41589;51.196;7.074;2023-11-22T05:22:22;1.30;;;1.30;;
19575;SDS011;41589;51.196;7.074;2023-11-22T05:27:22;1.00;;;1.00;;
19575;SDS011;41589;51.196;7.074;2023-11-22T05:32:23;0.97;;;0.97;;
19575;SDS011;41589;51.196;7.074;2023-11-22T05:37:23;1.00;;;1.00;;
19575;SDS011;41589;51.196;7.074;2023-11-22T05:42:23;0.90;;;0.90;;
19575;SDS011;41589;51.196;7.074;2023-11-22T05:47:25;0.80;;;0.80;;
19575;SDS011;41589;51.196;7.074;2023-11-22T05:52:25;0.90;;;0.90;;
19575;SDS011;41589;51.196;7.074;2023-11-22T05:57:25;1.60;;;1.33;;
19575;SDS011;41589;51.196;7.074;2023-11-22T06:02:26;1.00;;;1.00;;
19575;SDS011;41589;51.196;7.074;2023-11-22T06:07:26;0.80;;;0.80;;
19575;SDS011;41589;51.196;7.074;2023-11-22T06:12:27;0.90;;;0.90;;
19575;SDS011;41589;51.196;7.074;2023-11-22T06:17:27;1.10;;;1.10;;
19575;SDS011;41589;51.196;7.074;2023-11-22T06:22:29;0.90;;;0.90;;
19575;SDS011;41589;51.196;7.074;2023-11-22T06:27:29;0.97;;;0.97;;
19575;SDS011;41589;51.196;7.074;2023-11-22T06:32:30;0.80;;;0.80;;
19575;SDS011;41589;51.196;7.074;2023-11-22T06:37:30;0.90;;;0.90;;
19575;SDS011;41589;51.196;7.074;2023-11-22T06:42:30;1.00;;;1.00;;
19575;SDS011;41589;51.196;7.074;2023-11-22T06:47:31;0.90;;;0.90;;
19575;SDS011;41589;51.196;7.074;2023-11-22T06:52:32;1.10;;;1.10;;
19575;SDS011;41589;51.196;7.074;2023-11-22T06:57:32;1.03;;;1.03;;
19575;SDS011;41589;51.196;7.074;2023-11-22T07:02:33;1.03;;;1.03;;
19575;SDS011;41589;51.196;7.074;2023-11-22T07:07:35;0.87;;;0.87;;
19575;SDS011;41589;51.196;7.074;2023-11-22T07:12:38;0.90;;;0.90;;
19575;SDS011;41589;51.196;7.074;2023-11-22T07:17:40;0.83;;;0.83;;
19575;SDS011;41589;51.196;7.074;2023-11-22T07:22:40;1.10;;;1.10;;
19575;SDS011;41589;51.196;7.074;2023-11-22T07:27:46;1.03;;;1.03;;
19575;SDS011;41589;51.196;7.074;2023-11-22T07:32:47;0.97;;;0.97;;
19575;SDS011;41589;51.196;7.074;2023-11-22T07:37:48;0.90;;;0.90;;
19575;SDS011;41589;51.196;7.074;2023-11-22T07:42:50;0.80;;;0.80;;
19575;SDS011;41589;51.196;7.074;2023-11-22T07:47:50;1.00;;;1.00;;
19575;SDS011;41589;51.196;7.074;2023-11-22T07:52:53;0.90;;;0.90;;
19575;SDS011;41589;51.196;7.074;2023-11-22T07:57:53;1.10;;;1.00;;
19575;SDS011;41589;51.196;7.074;2023-11-22T08:02:55;1.00;;;1.00;;
19575;SDS011;41589;51.196;7.074;2023-11-22T08:07:57;0.93;;;0.90;;
19575;SDS011;41589;51.196;7.074;2023-11-22T08:12:58;1.20;;;1.10;;
19575;SDS011;41589;51.196;7.074;2023-11-22T08:17:58;1.10;;;1.10;;
19575;SDS011;41589;51.196;7.074;2023-11-22T08:23:00;0.90;;;0.90;;
19575;SDS011;41589;51.196;7.074;2023-11-22T08:28:00;1.00;;;1.00;;
19575;SDS011;41589;51.196;7.074;2023-11-22T08:33:01;2.10;;;2.00;;
19575;SDS011;41589;51.196;7.074;2023-11-22T08:38:02;1.00;;;1.00;;
19575;SDS011;41589;51.196;7.074;2023-11-22T08:43:03;1.00;;;1.00;;
19575;SDS011;41589;51.196;7.074;2023-11-22T08:48:04;1.03;;;1.03;;
19575;SDS011;41589;51.196;7.074;2023-11-22T08:53:04;1.07;;;1.07;;
19575;SDS011;41589;51.196;7.074;2023-11-22T08:58:05;1.40;;;1.30;;
19575;SDS011;41589;51.196;7.074;2023-11-22T09:03:08;0.87;;;0.87;;
19575;SDS011;41589;51.196;7.074;2023-11-22T09:08:13;1.03;;;1.00;;
19575;SDS011;41589;51.196;7.074;2023-11-22T09:13:15;1.30;;;1.10;;
19575;SDS011;41589;51.196;7.074;2023-11-22T09:18:16;0.73;;;0.73;;
19575;SDS011;41589;51.196;7.074;2023-11-22T09:23:16;1.00;;;1.00;;
19575;SDS011;41589;51.196;7.074;2023-11-22T09:28:17;0.90;;;0.90;;
19575;SDS011;41589;51.196;7.074;2023-11-22T09:33:17;0.80;;;0.80;;
19575;SDS011;41589;51.196;7.074;2023-11-22T09:38:18;1.07;;;1.07;;
19575;SDS011;41589;51.196;7.074;2023-11-22T09:43:19;0.73;;;0.73;;
19575;SDS011;41589;51.196;7.074;2023-11-22T09:48:20;0.80;;;0.80;;
19575;SDS011;41589;51.196;7.074;2023-11-22T09:54:05;0.87;;;0.87;;
19575;SDS011;41589;51.196;7.074;2023-11-22T09:58:57;0.90;;;0.90;;
19575;SDS011;41589;51.196;7.074;2023-11-22T10:04:00;0.80;;;0.80;;
19575;SDS011;41589;51.196;7.074;2023-11-22T10:09:01;0.80;;;0.80;;
19575;SDS011;41589;51.196;7.074;2023-11-22T10:14:08;0.80;;;0.80;;
19575;SDS011;41589;51.196;7.074;2023-11-22T10:19:08;0.80;;;0.80;;
19575;SDS011;41589;51.196;7.074;2023-11-22T10:24:10;0.73;;;0.73;;
19575;SDS011;41589;51.196;7.074;2023-11-22T10:29:10;0.80;;;0.80;;
19575;SDS011;41589;51.196;7.074;2023-11-22T10:34:13;0.80;;;0.80;;
19575;SDS011;41589;51.196;7.074;2023-11-22T10:39:14;0.80;;;0.80;;
19575;SDS011;41589;51.196;7.074;2023-11-22T10:44:22;0.87;;;0.87;;
19575;SDS011;41589;51.196;7.074;2023-11-22T10:49:22;0.93;;;0.93;;
19575;SDS011;41589;51.196;7.074;2023-11-22T10:54:23;0.80;;;0.80;;
19575;SDS011;41589;51.196;7.074;2023-11-22T10:59:26;0.80;;;0.80;;
19575;SDS011;41589;51.196;7.074;2023-11-22T11:04:29;0.73;;;0.73;;
19575;SDS011;41589;51.196;7.074;2023-11-22T11:09:36;0.90;;;0.90;;
19575;SDS011;41589;51.196;7.074;2023-11-22T11:14:37;0.87;;;0.87;;
19575;SDS011;41589;51.196;7.074;2023-11-22T11:19:38;0.93;;;0.93;;
19575;SDS011;41589;51.196;7.074;2023-11-22T11:24:39;1.83;;;1.73;;
19575;SDS011;41589;51.196;7.074;2023-11-22T11:29:40;0.70;;;0.70;;
19575;SDS011;41589;51.196;7.074;2023-11-22T11:34:49;1.00;;;1.00;;
19575;SDS011;41589;51.196;7.074;2023-11-22T11:39:50;0.93;;;0.93;;
19575;SDS011;41589;51.196;7.074;2023-11-22T11:49:57;0.90;;;0.90;;
19575;SDS011;41589;51.196;7.074;2023-11-22T11:54:57;1.00;;;1.00;;
19575;SDS011;41589;51.196;7.074;2023-11-22T11:59:58;0.80;;;0.80;;
19575;SDS011;41589;51.196;7.074;2023-11-22T12:04:59;0.67;;;0.67;;
19575;SDS011;41589;51.196;7.074;2023-11-22T12:10:01;0.90;;;0.90;;
19575;SDS011;41589;51.196;7.074;2023-11-22T12:15:01;1.10;;;1.10;;
19575;SDS011;41589;51.196;7.074;2023-11-22T12:20:10;0.90;;;0.90;;
19575;SDS011;41589;51.196;7.074;2023-11-22T12:25:16;0.90;;;0.90;;
19575;SDS011;41589;51.196;7.074;2023-11-22T12:30:35;0.87;;;0.87;;
19575;SDS011;41589;51.196;7.074;2023-11-22T12:35:36;0.90;;;0.90;;
19575;SDS011;41589;51.196;7.074;2023-11-22T12:40:36;0.83;;;0.83;;
19575;SDS011;41589;51.196;7.074;2023-11-22T12:45:36;1.00;;;1.00;;
19575;SDS011;41589;51.196;7.074;2023-11-22T12:50:41;0.77;;;0.77;;
19575;SDS011;41589;51.196;7.074;2023-11-22T13:00:48;3.80;;;3.60;;
19575;SDS011;41589;51.196;7.074;2023-11-22T13:05:49;5.23;;;3.60;;
19575;SDS011;41589;51.196;7.074;2023-11-22T13:10:52;3.97;;;3.47;;
19575;SDS011;41589;51.196;7.074;2023-11-22T13:15:53;7.50;;;4.83;;
19575;SDS011;41589;51.196;7.074;2023-11-22T13:20:54;23.03;;;20.77;;
19575;SDS011;41589;51.196;7.074;2023-11-22T13:25:54;12.40;;;9.17;;
19575;SDS011;41589;51.196;7.074;2023-11-22T13:30:54;4.27;;;3.80;;
19575;SDS011;41589;51.196;7.074;2023-11-22T13:35:55;1.27;;;1.27;;
19575;SDS011;41589;51.196;7.074;2023-11-22T13:40:55;0.70;;;0.70;;
19575;SDS011;41589;51.196;7.074;2023-11-22T13:45:55;0.90;;;0.90;;
19575;SDS011;41589;51.196;7.074;2023-11-22T13:50:56;0.80;;;0.80;;
19575;SDS011;41589;51.196;7.074;2023-11-22T13:55:56;1.00;;;1.00;;
19575;SDS011;41589;51.196;7.074;2023-11-22T14:00:58;0.80;;;0.80;;
19575;SDS011;41589;51.196;7.074;2023-11-22T14:05:59;1.40;;;1.30;;
19575;SDS011;41589;51.196;7.074;2023-11-22T14:11:00;1.40;;;1.30;;
19575;SDS011;41589;51.196;7.074;2023-11-22T14:16:00;0.80;;;0.80;;
19575;SDS011;41589;51.196;7.074;2023-11-22T14:21:01;1.10;;;1.10;;
19575;SDS011;41589;51.196;7.074;2023-11-22T14:26:03;1.10;;;1.10;;
19575;SDS011;41589;51.196;7.074;2023-11-22T14:31:03;0.70;;;0.70;;
19575;SDS011;41589;51.196;7.074;2023-11-22T14:36:04;0.83;;;0.83;;
19575;SDS011;41589;51.196;7.074;2023-11-22T14:41:04;0.90;;;0.90;;
19575;SDS011;41589;51.196;7.074;2023-11-22T14:46:05;1.07;;;0.93;;
19575;SDS011;41589;51.196;7.074;2023-11-22T14:51:05;0.80;;;0.80;;
19575;SDS011;41589;51.196;7.074;2023-11-22T14:56:09;0.80;;;0.80;;
19575;SDS011;41589;51.196;7.074;2023-11-22T15:01:10;1.03;;;1.00;;
19575;SDS011;41589;51.196;7.074;2023-11-22T15:06:10;1.10;;;1.10;;
19575;SDS011;41589;51.196;7.074;2023-11-22T15:11:10;0.90;;;0.90;;
19575;SDS011;41589;51.196;7.074;2023-11-22T15:16:11;1.23;;;1.23;;
19575;SDS011;41589;51.196;7.074;2023-11-22T15:21:12;0.80;;;0.80;;
19575;SDS011;41589;51.196;7.074;2023-11-22T15:26:13;2.73;;;1.10;;
19575;SDS011;41589;51.196;7.074;2023-11-22T15:31:14;2.03;;;1.93;;
19575;SDS011;41589;51.196;7.074;2023-11-22T15:36:15;1.00;;;1.00;;
19575;SDS011;41589;51.196;7.074;2023-11-22T15:41:15;1.57;;;1.47;;
19575;SDS011;41589;51.196;7.074;2023-11-22T15:46:16;0.80;;;0.80;;
19575;SDS011;41589;51.196;7.074;2023-11-22T15:51:18;0.90;;;0.90;;
19575;SDS011;41589;51.196;7.074;2023-11-22T15:56:19;1.00;;;1.00;;
19575;SDS011;41589;51.196;7.074;2023-11-22T16:01:19;1.80;;;1.63;;
19575;SDS011;41589;51.196;7.074;2023-11-22T16:06:21;0.90;;;0.90;;
19575;SDS011;41589;51.196;7.074;2023-11-22T16:11:22;1.03;;;1.03;;
19575;SDS011;41589;51.196;7.074;2023-11-22T16:16:23;0.87;;;0.87;;
19575;SDS011;41589;51.196;7.074;2023-11-22T16:21:23;1.10;;;1.00;;
19575;SDS011;41589;51.196;7.074;2023-11-22T16:26:25;1.00;;;1.00;;
19575;SDS011;41589;51.196;7.074;2023-11-22T16:31:27;0.80;;;0.80;;
19575;SDS011;41589;51.196;7.074;2023-11-22T16:36:27;0.90;;;0.90;;
19575;SDS011;41589;51.196;7.074;2023-11-22T16:41:27;0.80;;;0.80;;
19575;SDS011;41589;51.196;7.074;2023-11-22T16:46:28;1.50;;;1.20;;
19575;SDS011;41589;51.196;7.074;2023-11-22T16:51:28;0.80;;;0.80;;
19575;SDS011;41589;51.196;7.074;2023-11-22T16:56:29;0.73;;;0.73;;
19575;SDS011;41589;51.196;7.074;2023-11-22T17:01:29;1.40;;;1.40;;
19575;SDS011;41589;51.196;7.074;2023-11-22T17:06:29;1.10;;;1.10;;
19575;SDS011;41589;51.196;7.074;2023-11-22T17:11:30;0.90;;;0.90;;
19575;SDS011;41589;51.196;7.074;2023-11-22T17:16:30;1.00;;;1.00;;
19575;SDS011;41589;51.196;7.074;2023-11-22T17:21:31;0.93;;;0.93;;
19575;SDS011;41589;51.196;7.074;2023-11-22T17:26:33;0.80;;;0.80;;
19575;SDS011;41589;51.196;7.074;2023-11-22T17:31:34;0.80;;;0.80;;
19575;SDS011;41589;51.196;7.074;2023-11-22T17:36:34;1.27;;;1.10;;
19575;SDS011;41589;51.196;7.074;2023-11-22T17:41:34;0.90;;;0.90;;
19575;SDS011;41589;51.196;7.074;2023-11-22T17:46:35;1.03;;;1.00;;
19575;SDS011;41589;51.196;7.074;2023-11-22T17:51:40;0.90;;;0.90;;
19575;SDS011;41589;51.196;7.074;2023-11-22T17:56:41;0.90;;;0.90;;
19575;SDS011;41589;51.196;7.074;2023-11-22T18:01:41;1.03;;;1.03;;
19575;SDS011;41589;51.196;7.074;2023-11-22T18:06:42;0.87;;;0.87;;
19575;SDS011;41589;51.196;7.074;2023-11-22T18:11:43;1.43;;;1.03;;
19575;SDS011;41589;51.196;7.074;2023-11-22T18:16:44;1.00;;;1.00;;
19575;SDS011;41589;51.196;7.074;2023-11-22T18:21:45;0.80;;;0.80;;
19575;SDS011;41589;51.196;7.074;2023-11-22T18:26:45;0.80;;;0.80;;
19575;SDS011;41589;51.196;7.074;2023-11-22T18:31:46;0.90;;;0.90;;
19575;SDS011;41589;51.196;7.074;2023-11-22T18:36:46;1.00;;;1.00;;
19575;SDS011;41589;51.196;7.074;2023-11-22T18:41:47;1.17;;;1.07;;
19575;SDS011;41589;51.196;7.074;2023-11-22T18:46:47;1.13;;;1.13;;
19575;SDS011;41589;51.196;7.074;2023-11-22T18:51:48;0.93;;;0.93;;
19575;SDS011;41589;51.196;7.074;2023-11-22T18:56:51;0.87;;;0.87;;
19575;SDS011;41589;51.196;7.074;2023-11-22T19:01:52;1.07;;;1.07;;
19575;SDS011;41589;51.196;7.074;2023-11-22T19:06:52;2.33;;;2.23;;
19575;SDS011;41589;51.196;7.074;2023-11-22T19:11:53;1.23;;;1.23;;
19575;SDS011;41589;51.196;7.074;2023-11-22T19:16:54;0.90;;;0.90;;
19575;SDS011;41589;51.196;7.074;2023-11-22T19:21:54;1.20;;;1.20;;
19575;SDS011;41589;51.196;7.074;2023-11-22T19:26:55;1.60;;;1.50;;
19575;SDS011;41589;51.196;7.074;2023-11-22T19:31:55;1.00;;;1.00;;
19575;SDS011;41589;51.196;7.074;2023-11-22T19:36:58;1.13;;;1.13;;
19575;SDS011;41589;51.196;7.074;2023-11-22T19:41:58;0.90;;;0.90;;
19575;SDS011;41589;51.196;7.074;2023-11-22T19:46:59;1.10;;;1.10;;
19575;SDS011;41589;51.196;7.074;2023-11-22T19:51:59;0.80;;;0.80;;
19575;SDS011;41589;51.196;7.074;2023-11-22T19:57:00;1.23;;;1.23;;
19575;SDS011;41589;51.196;7.074;2023-11-22T20:02:01;1.00;;;1.00;;
19575;SDS011;41589;51.196;7.074;2023-11-22T20:07:02;0.93;;;0.93;;
19575;SDS011;41589;51.196;7.074;2023-11-22T20:12:03;0.90;;;0.90;;
19575;SDS011;41589;51.196;7.074;2023-11-22T20:17:04;1.43;;;1.20;;
19575;SDS011;41589;51.196;7.074;2023-11-22T20:22:06;1.07;;;1.07;;
19575;SDS011;41589;51.196;7.074;2023-11-22T20:27:06;0.90;;;0.90;;
19575;SDS011;41589;51.196;7.074;2023-11-22T20:32:07;1.10;;;1.10;;
19575;SDS011;41589;51.196;7.074;2023-11-22T20:37:07;1.00;;;1.00;;
19575;SDS011;41589;51.196;7.074;2023-11-22T20:42:08;0.87;;;0.87;;
19575;SDS011;41589;51.196;7.074;2023-11-22T20:47:08;1.00;;;1.00;;
19575;SDS011;41589;51.196;7.074;2023-11-22T20:52:09;1.20;;;1.20;;
19575;SDS011;41589;51.196;7.074;2023-11-22T20:57:09;1.03;;;1.03;;
19575;SDS011;41589;51.196;7.074;2023-11-22T21:02:09;0.80;;;0.80;;
19575;SDS011;41589;51.196;7.074;2023-11-22T21:07:10;1.10;;;1.10;;
19575;SDS011;41589;51.196;7.074;2023-11-22T21:12:10;1.00;;;1.00;;
19575;SDS011;41589;51.196;7.074;2023-11-22T21:17:10;1.10;;;1.10;;
19575;SDS011;41589;51.196;7.074;2023-11-22T21:22:12;1.00;;;1.00;;
19575;SDS011;41589;51.196;7.074;2023-11-22T21:27:13;0.90;;;0.90;;
19575;SDS011;41589;51.196;7.074;2023-11-22T21:32:13;1.50;;;1.40;;
19575;SDS011;41589;51.196;7.074;2023-11-22T21:37:13;1.00;;;1.00;;
19575;SDS011;41589;51.196;7.074;2023-11-22T21:42:14;1.00;;;1.00;;
19575;SDS011;41589;51.196;7.074;2023-11-22T21:47:15;1.10;;;1.10;;
19575;SDS011;41589;51.196;7.074;2023-11-22T21:52:15;1.00;;;1.00;;
19575;SDS011;41589;51.196;7.074;2023-11-22T21:57:15;0.97;;;0.97;;
19575;SDS011;41589;51.196;7.074;2023-11-22T22:02:19;1.13;;;1.13;;
19575;SDS011;41589;51.196;7.074;2023-11-22T22:07:20;1.30;;;1.30;;
19575;SDS011;41589;51.196;7.074;2023-11-22T22:12:20;2.13;;;1.40;;
19575;SDS011;41589;51.196;7.074;2023-11-22T22:17:20;0.90;;;0.90;;
19575;SDS011;41589;51.196;7.074;2023-11-22T22:22:21;1.00;;;1.00;;
19575;SDS011;41589;51.196;7.074;2023-11-22T22:27:21;1.83;;;1.83;;
19575;SDS011;41589;51.196;7.074;2023-11-22T22:32:22;1.20;;;1.20;;
19575;SDS011;41589;51.196;7.074;2023-11-22T22:37:23;1.23;;;1.23;;
19575;SDS011;41589;51.196;7.074;2023-11-22T22:42:23;1.20;;;1.20;;
19575;SDS011;41589;51.196;7.074;2023-11-22T22:47:23;1.20;;;1.20;;
19575;SDS011;41589;51.196;7.074;2023-11-22T22:52:24;0.93;;;0.93;;
19575;SDS011;41589;51.196;7.074;2023-11-22T22:57:24;0.90;;;0.90;;
19575;SDS011;41589;51.196;7.074;2023-11-22T23:02:25;1.30;;;1.20;;
19575;SDS011;41589;51.196;7.074;2023-11-22T23:07:25;1.17;;;1.17;;
19575;SDS011;41589;51.196;7.074;2023-11-22T23:12:26;0.93;;;0.93;;
19575;SDS011;41589;51.196;7.074;2023-11-22T23:17:26;0.90;;;0.90;;
19575;SDS011;41589;51.196;7.074;2023-11-22T23:22:26;0.93;;;0.93;;
19575;SDS011;41589;51.196;7.074;2023-11-22T23:27:27;0.90;;;0.90;;
19575;SDS011;41589;51.196;7.074;2023-11-22T23:32:27;0.90;;;0.90;;
19575;SDS011;41589;51.196;7.074;2023-11-22T23:37:29;1.03;;;1.03;;
19575;SDS011;41589;51.196;7.074;2023-11-22T23:42:29;1.00;;;1.00;;
19575;SDS011;41589;51.196;7.074;2023-11-22T23:47:29;0.97;;;0.97;;
19575;SDS011;41589;51.196;7.074;2023-11-22T23:52:30;0.93;;;0.93;;
19575;SDS011;41589;51.196;7.074;2023-11-22T23:57:30;0.97;;;0.90;;
